createdAt,value
2022-08-11T00:02:15.447Z,3.60
2022-08-11T00:04:48.945Z,2.90
2022-08-11T00:09:54.077Z,2.60
2022-08-11T00:12:27.579Z,2.90
2022-08-11T00:15:05.050Z,3.00
2022-08-11T00:17:38.873Z,3.20
2022-08-11T00:20:17.262Z,2.80
2022-08-11T00:22:52.155Z,3.20
2022-08-11T00:25:26.075Z,3.20
2022-08-11T00:27:59.113Z,3.00
2022-08-11T00:30:42.694Z,3.00
2022-08-11T00:33:15.834Z,2.80
2022-08-11T00:35:57.291Z,2.90
2022-08-11T00:38:37.634Z,3.00
2022-08-11T00:41:20.275Z,3.00
2022-08-11T00:44:09.855Z,3.00
2022-08-11T00:47:02.336Z,3.10
2022-08-11T00:49:47.265Z,3.10
2022-08-11T00:52:38.804Z,3.50
2022-08-11T00:55:59.884Z,2.80
2022-08-11T00:59:34.419Z,3.10
2022-08-11T01:02:18.533Z,3.40
2022-08-11T01:05:18.044Z,3.20
2022-08-11T01:08:17.363Z,3.60
2022-08-11T01:11:02.154Z,3.20
2022-08-11T01:14:07.864Z,2.90
2022-08-11T01:17:15.815Z,3.10
2022-08-11T01:20:46.492Z,3.60
2022-08-11T01:23:47.255Z,3.70
2022-08-11T01:27:19.400Z,3.60
2022-08-11T01:30:28.366Z,3.60
2022-08-11T01:33:35.115Z,3.30
2022-08-11T01:36:56.662Z,3.70
2022-08-11T01:40:03.145Z,3.50
2022-08-11T01:43:25.437Z,3.30
2022-08-11T01:46:03.558Z,3.90
2022-08-11T01:48:46.915Z,3.60
2022-08-11T01:51:30.745Z,3.70
2022-08-11T01:54:11.714Z,3.30
2022-08-11T01:56:58.800Z,4.00
2022-08-11T01:59:36.955Z,4.00
2022-08-11T02:02:46.444Z,3.60
2022-08-11T02:06:01.694Z,3.70
2022-08-11T02:08:50.498Z,3.90
2022-08-11T02:11:35.826Z,3.50
2022-08-11T02:14:26.555Z,4.40
2022-08-11T02:17:17.484Z,3.30
2022-08-11T02:20:21.104Z,3.90
2022-08-11T02:24:04.006Z,3.80
2022-08-11T02:26:23.055Z,3.60
2022-08-11T02:29:12.283Z,3.60
2022-08-11T02:32:25.968Z,4.60
2022-08-11T02:35:16.516Z,3.80
2022-08-11T02:38:09.147Z,3.60
2022-08-11T02:40:50.287Z,4.00
2022-08-11T02:43:31.715Z,3.50
2022-08-11T02:46:22.234Z,4.00
2022-08-11T02:49:37.127Z,4.10
2022-08-11T02:52:20.224Z,3.90
2022-08-11T02:55:04.317Z,4.00
2022-08-11T02:57:43.576Z,4.20
2022-08-11T03:00:20.278Z,4.00
2022-08-11T03:03:13.829Z,4.70
2022-08-11T03:06:02.845Z,3.80
2022-08-11T03:08:52.925Z,3.90
2022-08-11T03:12:08.521Z,4.30
2022-08-11T03:15:07.429Z,4.00
2022-08-11T03:17:49.463Z,4.40
2022-08-11T03:20:40.670Z,4.50
2022-08-11T03:23:29.440Z,3.80
2022-08-11T03:26:11.840Z,4.10
2022-08-11T03:28:53.710Z,3.80
2022-08-11T03:31:31.640Z,3.90
2022-08-11T03:34:08.533Z,3.80
2022-08-11T03:37:34.561Z,4.40
2022-08-11T03:40:38.232Z,3.90
2022-08-11T03:43:50.146Z,4.40
2022-08-11T03:46:45.810Z,4.00
2022-08-11T03:49:36.609Z,4.40
2022-08-11T03:52:18.661Z,4.90
2022-08-11T03:55:03.553Z,3.80
2022-08-11T03:58:25.881Z,4.40
2022-08-11T04:01:29.995Z,3.70
2022-08-11T04:04:47.715Z,3.90
2022-08-11T04:07:53.021Z,4.50
2022-08-11T04:10:59.319Z,4.50
2022-08-11T04:14:25.811Z,3.80
2022-08-11T04:17:22.691Z,3.40
2022-08-11T04:20:22.131Z,4.50
2022-08-11T04:24:34.440Z,4.40
2022-08-11T04:26:47.671Z,4.30
2022-08-11T04:30:03.223Z,3.90
2022-08-11T04:32:50.901Z,4.10
2022-08-11T04:35:36.181Z,4.20
2022-08-11T04:38:40.281Z,3.90
2022-08-11T04:42:02.372Z,3.70
2022-08-11T04:45:05.452Z,4.30
2022-08-11T04:48:08.970Z,4.20
2022-08-11T04:51:17.797Z,3.40
2022-08-11T04:54:19.520Z,3.50
2022-08-11T04:57:14.900Z,3.90
2022-08-11T05:00:33.252Z,3.40
2022-08-11T05:03:45.144Z,3.70
2022-08-11T05:06:48.978Z,3.50
2022-08-11T05:09:41.031Z,4.10
2022-08-11T05:12:31.851Z,4.10
2022-08-11T05:15:23.459Z,4.00
2022-08-11T05:18:21.764Z,3.90
2022-08-11T05:21:16.254Z,4.00
2022-08-11T05:24:13.824Z,3.50
2022-08-11T05:27:11.298Z,4.60
2022-08-11T05:30:07.113Z,3.70
2022-08-11T05:33:02.442Z,3.90
2022-08-11T05:36:02.434Z,3.90
2022-08-11T05:38:53.574Z,3.60
2022-08-11T05:41:46.270Z,3.70
2022-08-11T05:44:40.201Z,3.30
2022-08-11T05:47:30.762Z,3.00
2022-08-11T05:50:32.920Z,3.50
2022-08-11T05:53:30.261Z,3.40
2022-08-11T05:56:19.150Z,3.40
2022-08-11T05:58:54.640Z,3.50
2022-08-11T06:01:31.466Z,3.20
2022-08-11T06:04:18.472Z,3.20
2022-08-11T06:06:58.491Z,3.70
2022-08-11T06:09:36.734Z,3.40
2022-08-11T06:12:18.103Z,3.40
2022-08-11T06:14:56.009Z,3.20
2022-08-11T06:17:38.796Z,3.30
2022-08-11T06:20:15.487Z,3.20
2022-08-11T06:22:53.052Z,3.10
2022-08-11T06:25:31.849Z,3.50
2022-08-11T06:28:08.223Z,3.80
2022-08-11T06:30:44.931Z,3.50
2022-08-11T06:33:23.416Z,3.50
2022-08-11T06:36:05.651Z,3.60
2022-08-11T06:38:58.761Z,3.00
2022-08-11T06:41:39.836Z,2.30
2022-08-11T06:44:23.786Z,2.50
2022-08-11T06:47:01.533Z,3.10
2022-08-11T06:50:01.977Z,2.90
2022-08-11T06:52:37.219Z,2.60
2022-08-11T06:55:57.917Z,2.10
2022-08-11T06:58:50.164Z,1.90
2022-08-11T07:01:33.501Z,1.80
2022-08-11T07:04:10.820Z,2.20
2022-08-11T07:07:12.520Z,2.00
2022-08-11T07:10:37.143Z,2.10
2022-08-11T07:13:44.626Z,1.90
2022-08-11T07:16:26.396Z,2.00
2022-08-11T07:19:20.480Z,2.30
2022-08-11T07:22:12.386Z,2.20
2022-08-11T07:25:08.542Z,2.40
2022-08-11T07:28:06.632Z,2.20
2022-08-11T07:30:44.201Z,2.30
2022-08-11T07:34:07.816Z,2.20
2022-08-11T07:36:23.498Z,2.30
2022-08-11T07:39:02.631Z,1.70
2022-08-11T07:41:39.941Z,2.30
2022-08-11T07:44:13.676Z,1.80
2022-08-11T07:47:06.761Z,2.10
2022-08-11T07:49:59.442Z,2.20
2022-08-11T07:52:38.561Z,2.10
2022-08-11T07:55:15.343Z,1.70
2022-08-11T07:58:19.282Z,1.80
2022-08-11T08:01:21.401Z,1.80
2022-08-11T08:04:12.964Z,1.80
2022-08-11T08:07:03.578Z,1.50
2022-08-11T08:09:55.666Z,1.60
2022-08-11T08:12:46.931Z,1.30
2022-08-11T08:15:39.262Z,1.80
2022-08-11T08:18:25.546Z,1.60
2022-08-11T08:21:12.495Z,1.30
2022-08-11T08:23:47.621Z,1.20
2022-08-11T08:26:51.427Z,1.10
2022-08-11T08:29:43.390Z,1.70
2022-08-11T08:32:18.121Z,1.30
2022-08-11T08:34:55.869Z,1.40
2022-08-11T08:37:45.492Z,1.20
2022-08-11T08:40:22.136Z,1.20
2022-08-11T08:42:58.091Z,1.30
2022-08-11T08:45:31.924Z,1.50
2022-08-11T08:48:16.814Z,1.60
2022-08-11T08:51:13.232Z,1.90
2022-08-11T08:53:53.402Z,1.20
2022-08-11T08:56:32.110Z,0.90
2022-08-11T08:59:06.870Z,1.20
2022-08-11T09:01:47.896Z,1.30
2022-08-11T09:04:22.076Z,1.30
2022-08-11T09:06:55.961Z,1.00
2022-08-11T09:09:29.932Z,1.30
2022-08-11T09:12:05.987Z,1.10
2022-08-11T09:14:57.810Z,3.10
2022-08-11T09:17:32.413Z,2.60
2022-08-11T09:20:09.234Z,9.00
2022-08-11T09:24:02.036Z,4.90
2022-08-11T09:26:16.266Z,2.10
2022-08-11T09:28:51.072Z,1.50
2022-08-11T09:31:27.072Z,1.40
2022-08-11T09:34:00.356Z,1.20
2022-08-11T09:36:51.108Z,0.90
2022-08-11T09:39:41.052Z,1.40
2022-08-11T09:42:23.218Z,1.20
2022-08-11T09:44:58.072Z,1.10
2022-08-11T09:47:37.440Z,1.00
2022-08-11T09:50:13.570Z,1.50
2022-08-11T09:53:16.780Z,1.20
2022-08-11T09:55:42.973Z,1.20
2022-08-11T09:58:41.743Z,1.40
2022-08-11T10:01:27.646Z,1.00
2022-08-11T10:04:07.470Z,1.90
2022-08-11T10:06:59.409Z,1.20
2022-08-11T10:09:38.841Z,1.10
2022-08-11T10:12:27.404Z,1.00
2022-08-11T10:15:21.312Z,1.10
2022-08-11T10:18:16.301Z,1.50
2022-08-11T10:20:52.599Z,0.80
2022-08-11T10:24:00.995Z,1.40
2022-08-11T10:26:56.012Z,0.90
2022-08-11T10:29:50.053Z,0.90
2022-08-11T10:32:58.021Z,1.00
2022-08-11T10:35:34.533Z,1.30
2022-08-11T10:38:12.110Z,0.90
2022-08-11T10:41:11.538Z,1.20
2022-08-11T10:44:03.036Z,1.00
2022-08-11T10:46:54.461Z,1.10
2022-08-11T10:49:29.142Z,1.20
2022-08-11T10:52:20.411Z,1.00
2022-08-11T10:55:11.262Z,1.30
2022-08-11T10:58:04.813Z,1.10
2022-08-11T11:00:38.751Z,1.00
2022-08-11T11:03:22.759Z,1.30
2022-08-11T11:06:13.329Z,1.40
2022-08-11T11:09:04.540Z,1.00
2022-08-11T11:12:02.710Z,1.00
2022-08-11T11:14:59.066Z,1.20
2022-08-11T11:17:54.285Z,1.00
2022-08-11T11:20:36.749Z,1.00
2022-08-11T11:23:17.030Z,1.20
2022-08-11T11:26:10.992Z,1.40
2022-08-11T11:29:05.158Z,1.00
2022-08-11T11:31:52.650Z,1.90
2022-08-11T11:34:53.278Z,4.70
2022-08-11T11:37:27.601Z,1.30
2022-08-11T11:40:01.701Z,1.10
2022-08-11T11:42:35.123Z,1.00
2022-08-11T11:45:22.726Z,1.20
2022-08-11T11:47:59.760Z,1.00
2022-08-11T11:50:35.446Z,1.30
2022-08-11T11:53:11.533Z,1.20
2022-08-11T11:55:45.548Z,1.30
2022-08-11T11:58:36.760Z,1.20
2022-08-11T12:01:20.450Z,1.30
2022-08-11T12:03:55.500Z,1.40
2022-08-11T12:06:30.220Z,1.30
2022-08-11T12:09:03.735Z,1.10
2022-08-11T12:11:54.724Z,1.20
2022-08-11T12:14:29.109Z,1.10
2022-08-11T12:17:03.231Z,1.50
2022-08-11T12:19:36.360Z,1.00
2022-08-11T12:22:26.881Z,1.10
2022-08-11T12:25:17.100Z,1.70
2022-08-11T12:27:50.490Z,1.60
2022-08-11T12:30:24.300Z,1.60
2022-08-11T12:32:59.400Z,1.50
2022-08-11T12:35:35.620Z,1.40
2022-08-11T12:38:10.744Z,1.40
2022-08-11T12:41:17.971Z,1.70
2022-08-11T12:44:09.622Z,1.70
2022-08-11T12:46:47.196Z,1.30
2022-08-11T12:49:44.878Z,1.70
2022-08-11T12:52:24.323Z,1.50
2022-08-11T12:55:04.302Z,1.70
2022-08-11T12:57:57.865Z,2.00
2022-08-11T13:03:39.966Z,1.80
2022-08-11T13:06:13.612Z,1.80
2022-08-11T13:08:48.103Z,1.80
2022-08-11T13:11:55.995Z,1.70
2022-08-11T13:14:33.504Z,1.20
2022-08-11T13:17:40.089Z,1.30
2022-08-11T13:20:20.472Z,1.30
2022-08-11T13:34:17.731Z,1.00
2022-08-11T13:36:53.671Z,1.00
2022-08-11T13:39:26.501Z,1.20
2022-08-11T13:41:59.112Z,1.20
2022-08-11T13:44:33.973Z,1.00
2022-08-11T13:47:07.613Z,2.30
2022-08-11T13:49:40.487Z,11.90
2022-08-11T13:54:44.659Z,11.80
2022-08-11T13:58:08.876Z,11.90
2022-08-11T14:00:24.947Z,9.30
2022-08-11T14:03:00.048Z,4.20
2022-08-11T14:05:38.592Z,5.90
2022-08-11T14:08:37.430Z,2.50
2022-08-11T14:12:22.060Z,2.20
2022-08-11T14:14:21.871Z,13.90
2022-08-11T14:16:57.063Z,3.80
2022-08-11T14:19:28.792Z,2.30
2022-08-11T14:22:08.473Z,1.00
2022-08-11T14:24:41.582Z,1.00
2022-08-11T14:28:25.687Z,1.30
2022-08-11T14:30:05.103Z,1.20
2022-08-11T14:32:35.713Z,1.20
2022-08-11T14:35:23.652Z,1.20
2022-08-11T14:37:54.513Z,1.10
2022-08-11T14:40:44.092Z,1.20
2022-08-11T14:44:13.983Z,1.30
2022-08-11T14:46:41.578Z,1.40
2022-08-11T14:49:14.817Z,1.30
2022-08-11T14:51:47.116Z,1.10
2022-08-11T14:54:35.921Z,1.40
2022-08-11T14:57:06.602Z,1.10
2022-08-11T14:59:37.693Z,1.30
2022-08-11T15:02:26.102Z,1.20
2022-08-11T15:04:57.492Z,1.40
2022-08-11T15:07:30.090Z,1.20
2022-08-11T15:10:14.003Z,1.40
2022-08-11T15:12:44.861Z,1.30
2022-08-11T15:15:34.372Z,1.10
2022-08-11T15:18:06.661Z,1.40
2022-08-11T15:20:55.912Z,1.80
2022-08-11T15:23:44.363Z,1.00
2022-08-11T15:26:17.480Z,1.30
2022-08-11T15:29:08.702Z,1.40
2022-08-11T15:31:58.131Z,1.10
2022-08-11T15:34:48.561Z,1.30
2022-08-11T15:37:27.668Z,1.30
2022-08-11T15:40:32.143Z,1.50
2022-08-11T15:43:29.181Z,1.30
2022-08-11T15:46:03.656Z,1.30
2022-08-11T15:48:42.250Z,1.20
2022-08-11T15:51:17.371Z,1.50
2022-08-11T15:53:56.462Z,1.40
2022-08-11T15:56:29.820Z,1.30
2022-08-11T15:59:42.809Z,1.50
2022-08-11T16:02:32.749Z,1.40
2022-08-11T16:05:07.652Z,1.60
2022-08-11T16:07:41.041Z,1.40
2022-08-11T16:10:21.326Z,2.10
2022-08-11T16:13:22.161Z,1.50
2022-08-11T16:16:14.564Z,1.50
2022-08-11T16:18:46.858Z,1.60
2022-08-11T16:21:34.342Z,1.60
2022-08-11T16:24:08.578Z,1.50
2022-08-11T16:27:08.487Z,1.60
2022-08-11T16:29:36.930Z,1.80
2022-08-11T16:32:17.690Z,1.50
2022-08-11T16:35:09.492Z,1.50
2022-08-11T16:37:59.001Z,1.30
2022-08-11T16:40:31.191Z,1.60
2022-08-11T16:43:21.974Z,1.50
2022-08-11T16:46:11.966Z,1.80
2022-08-11T16:48:46.612Z,1.40
2022-08-11T16:51:20.914Z,1.50
2022-08-11T16:54:04.387Z,1.50
2022-08-11T16:56:39.739Z,1.60
2022-08-11T16:59:17.715Z,1.50
2022-08-11T17:01:52.771Z,1.70
2022-08-11T17:04:54.690Z,1.50
2022-08-11T17:07:46.080Z,1.50
2022-08-11T17:10:52.077Z,1.10
2022-08-11T17:13:29.502Z,1.30
2022-08-11T17:16:11.334Z,1.10
2022-08-11T17:18:49.442Z,1.00
2022-08-11T17:21:23.570Z,1.10
2022-08-11T17:23:57.568Z,1.00
2022-08-11T17:26:47.285Z,1.00
2022-08-11T17:29:21.750Z,1.10
2022-08-11T17:32:08.090Z,1.20
2022-08-11T17:34:58.679Z,1.00
2022-08-11T17:37:32.867Z,1.00
2022-08-11T17:40:06.017Z,1.10
2022-08-11T17:45:42.807Z,0.90
2022-08-11T17:48:26.149Z,1.20
2022-08-11T17:51:00.109Z,1.20
2022-08-11T17:54:10.179Z,1.40
2022-08-11T17:57:20.205Z,1.10
2022-08-11T17:59:57.400Z,1.10
2022-08-11T18:02:53.730Z,1.00
2022-08-11T18:05:28.520Z,1.30
2022-08-11T18:08:18.381Z,1.30
2022-08-11T18:11:08.812Z,1.30
2022-08-11T18:13:59.062Z,1.20
2022-08-11T18:16:47.790Z,1.10
2022-08-11T18:19:36.778Z,1.40
2022-08-11T18:22:27.664Z,1.30
2022-08-11T18:25:21.362Z,1.70
2022-08-11T18:31:04.643Z,1.30
2022-08-11T18:34:08.239Z,1.30
2022-08-11T18:37:00.334Z,1.50
2022-08-11T18:39:56.552Z,1.70
2022-08-11T18:42:47.901Z,1.60
2022-08-11T18:45:46.104Z,1.50
2022-08-11T18:48:40.371Z,1.50
2022-08-11T18:51:36.916Z,1.40
2022-08-11T18:54:27.678Z,1.50
2022-08-11T18:57:19.901Z,1.50
2022-08-11T19:00:10.621Z,1.40
2022-08-11T19:03:01.322Z,1.90
2022-08-11T19:06:35.535Z,2.10
2022-08-11T19:09:07.772Z,1.90
2022-08-11T19:11:59.725Z,1.50
2022-08-11T19:14:53.467Z,1.90
2022-08-11T19:20:38.038Z,1.50
2022-08-11T19:23:29.539Z,1.70
2022-08-11T19:26:19.511Z,1.60
2022-08-11T19:29:09.182Z,2.40
2022-08-11T19:32:18.902Z,1.60
2022-08-11T19:35:08.472Z,1.70
2022-08-11T19:37:58.751Z,2.00
2022-08-11T19:40:48.161Z,1.90
2022-08-11T19:43:38.050Z,1.80
2022-08-11T19:46:28.611Z,2.50
2022-08-11T19:49:17.533Z,2.40
2022-08-11T19:52:06.299Z,1.80
2022-08-11T19:54:56.786Z,1.70
2022-08-11T19:57:46.501Z,1.90
2022-08-11T20:00:37.511Z,1.90
2022-08-11T20:03:29.489Z,2.00
2022-08-11T20:06:21.942Z,2.10
2022-08-11T20:09:12.072Z,1.90
2022-08-11T20:12:04.741Z,1.60
2022-08-11T20:14:55.260Z,1.70
2022-08-11T20:17:47.662Z,1.50
2022-08-11T20:20:38.143Z,2.00
2022-08-11T20:23:31.212Z,1.80
2022-08-11T20:26:30.745Z,1.90
2022-08-11T20:29:21.342Z,2.20
2022-08-11T20:32:10.139Z,2.00
2022-08-11T20:35:00.644Z,2.00
2022-08-11T20:37:53.132Z,1.60
2022-08-11T20:40:43.400Z,2.10
2022-08-11T20:44:08.513Z,2.30
2022-08-11T20:46:42.815Z,2.70
2022-08-11T20:49:40.855Z,2.60
2022-08-11T20:55:53.836Z,2.20
2022-08-11T21:01:53.404Z,2.60
2022-08-11T21:07:56.945Z,2.60
2022-08-11T21:10:51.526Z,2.60
2022-08-11T21:13:42.821Z,2.50
2022-08-11T21:16:36.812Z,2.60
2022-08-11T21:20:01.445Z,2.20
2022-08-11T21:22:59.273Z,2.70
2022-08-11T21:25:52.059Z,2.80
2022-08-11T21:28:41.296Z,2.60
2022-08-11T21:31:30.082Z,2.50
2022-08-11T21:34:19.462Z,2.40
2022-08-11T21:37:29.411Z,2.60
2022-08-11T21:40:20.792Z,2.30
2022-08-11T21:43:11.191Z,2.60
2022-08-11T21:46:01.652Z,2.80
2022-08-11T21:48:51.782Z,2.50
2022-08-11T21:51:44.487Z,2.60
2022-08-11T21:54:34.610Z,2.70
2022-08-11T21:57:23.851Z,2.60
2022-08-11T22:00:13.959Z,2.50
2022-08-11T22:03:04.683Z,2.60
2022-08-11T22:05:55.302Z,2.50
2022-08-11T22:08:43.412Z,2.40
2022-08-11T22:11:32.882Z,2.60
2022-08-11T22:14:22.261Z,2.60
2022-08-11T22:17:10.601Z,2.70
2022-08-11T22:20:00.850Z,2.60
2022-08-11T22:22:53.006Z,2.40
2022-08-11T22:25:59.713Z,2.50
2022-08-11T22:28:50.703Z,2.80
2022-08-11T22:31:39.382Z,2.60
2022-08-11T22:34:28.212Z,2.30
2022-08-11T22:37:27.229Z,2.20
2022-08-11T22:40:16.783Z,2.70
2022-08-11T22:43:04.522Z,2.60
2022-08-11T22:45:52.692Z,2.40
2022-08-11T22:48:41.122Z,2.60
2022-08-11T22:51:29.253Z,2.20
2022-08-11T22:54:18.382Z,2.40
2022-08-11T22:57:07.863Z,2.90
2022-08-11T22:59:57.031Z,2.40
2022-08-11T23:02:47.875Z,2.30
2022-08-11T23:05:37.212Z,2.40
2022-08-11T23:08:25.762Z,2.40
2022-08-11T23:11:14.974Z,2.40
2022-08-11T23:14:03.795Z,2.30
2022-08-11T23:16:52.531Z,2.30
2022-08-11T23:20:03.822Z,2.30
2022-08-11T23:22:52.930Z,2.50
2022-08-11T23:25:41.363Z,2.50
2022-08-11T23:28:31.416Z,2.70
2022-08-11T23:31:20.412Z,2.50
2022-08-11T23:34:37.052Z,2.40
2022-08-11T23:37:22.974Z,2.40
2022-08-11T23:40:11.223Z,2.20
2022-08-11T23:42:59.534Z,2.60
2022-08-11T23:45:47.383Z,2.50
2022-08-11T23:48:37.602Z,2.50
2022-08-11T23:51:27.532Z,2.90
2022-08-11T23:54:41.690Z,3.30
2022-08-11T23:57:50.212Z,3.00
